Time;durP1;ratioP1;P1;durP2;ratioP2;P2;SDS_P1;SDS_P2;PMS_P1;PMS_P2;Temp;Humidity;BMP_temperature;BMP_pressure;BME280_temperature;BME280_humidity;BME280_pressure;Samples;Min_cycle;Max_cycle;Signal;HPM_P1;HPM_P2
2022/07/24 00:01:34;;;;;;;20.77;4.10;;;;;;;25.37;66.70;100712.38;5031600;28;20476;-78
2022/07/24 00:04:00;;;;;;;8.82;4.13;;;;;;;25.31;66.87;100707.75;5031780;28;20487;-78
2022/07/24 00:06:25;;;;;;;17.45;4.38;;;;;;;25.23;67.49;100716.25;5031596;28;20224;-78
2022/07/24 00:08:51;;;;;;;10.45;4.05;;;;;;;25.28;67.40;100722.81;5031636;28;20021;-77
2022/07/24 00:11:17;;;;;;;13.30;3.95;;;;;;;25.26;67.26;100716.66;5031422;28;20029;-78
2022/07/24 00:13:42;;;;;;;12.57;3.75;;;;;;;25.21;67.63;100707.38;5031474;28;20032;-77
2022/07/24 00:16:08;;;;;;;13.18;4.53;;;;;;;25.22;67.63;100714.56;5031965;28;20096;-77
2022/07/24 00:18:34;;;;;;;14.68;4.38;;;;;;;25.26;67.67;100715.81;5035340;28;20044;-77
2022/07/24 00:21:00;;;;;;;11.60;4.95;;;;;;;25.27;67.84;100712.84;5036321;28;20053;-80
2022/07/24 00:23:25;;;;;;;9.85;3.88;;;;;;;25.24;67.79;100712.44;5036696;28;20083;-83
2022/07/24 00:25:52;;;;;;;10.18;3.88;;;;;;;25.12;67.86;100708.69;5037250;28;20025;-83
2022/07/24 00:28:19;;;;;;;14.85;4.80;;;;;;;25.07;68.26;100708.50;5037470;28;20104;-83
2022/07/24 00:30:44;;;;;;;16.98;4.72;;;;;;;25.12;68.17;100712.28;5037453;28;20025;-83
2022/07/24 00:33:10;;;;;;;11.55;4.35;;;;;;;25.12;68.34;100704.03;5037250;28;20030;-83
2022/07/24 00:35:35;;;;;;;7.95;3.33;;;;;;;25.09;68.45;100703.59;5036980;28;20476;-83
2022/07/24 00:38:05;;;;;;;9.23;3.70;;;;;;;25.03;68.71;100702.56;5037563;28;20388;-85
2022/07/24 00:40:31;;;;;;;6.00;4.10;;;;;;;25.04;68.65;100703.41;5037125;28;20120;-83
2022/07/24 00:42:57;;;;;;;10.25;3.55;;;;;;;25.05;68.56;100691.31;5036956;28;20385;-83
2022/07/24 00:45:24;;;;;;;9.10;3.90;;;;;;;25.01;68.53;100679.09;5039386;28;20021;-83
2022/07/24 00:47:50;;;;;;;7.85;4.03;;;;;;;25.09;68.63;100687.94;5057330;28;20025;-82
2022/07/24 00:50:15;;;;;;;7.00;4.00;;;;;;;24.99;68.56;100681.19;5056861;28;20029;-83
2022/07/24 00:52:42;;;;;;;11.82;4.20;;;;;;;25.01;68.69;100684.59;5057004;28;20020;-82
2022/07/24 00:55:08;;;;;;;9.00;4.53;;;;;;;24.98;68.78;100679.53;5045512;28;20022;-83
2022/07/24 00:57:34;;;;;;;14.85;3.65;;;;;;;24.96;68.39;100676.13;5036818;28;20049;-83
2022/07/24 00:59:59;;;;;;;12.43;3.58;;;;;;;24.96;68.46;100665.97;5036679;28;20037;-84
2022/07/24 01:02:25;;;;;;;9.90;4.32;;;;;;;24.96;68.63;100676.13;5036796;28;20195;-84
2022/07/24 01:04:51;;;;;;;10.52;4.00;;;;;;;24.94;68.67;100673.59;5036454;28;20025;-83
2022/07/24 01:07:16;;;;;;;18.92;4.38;;;;;;;24.92;68.71;100677.63;5052569;28;20072;-83
2022/07/24 01:09:43;;;;;;;14.02;4.30;;;;;;;24.87;68.89;100662.63;5056598;28;20051;-83
2022/07/24 01:12:09;;;;;;;12.23;4.53;;;;;;;24.92;68.68;100663.88;5056463;28;20067;-83
2022/07/24 01:14:35;;;;;;;14.10;4.50;;;;;;;24.92;68.81;100657.28;5055804;28;20033;-84
2022/07/24 01:17:01;;;;;;;11.88;4.40;;;;;;;24.89;68.69;100654.97;5039848;28;20021;-83
2022/07/24 01:19:26;;;;;;;10.70;4.57;;;;;;;24.80;69.00;100650.75;5051266;28;20028;-83
2022/07/24 01:21:53;;;;;;;19.13;4.63;;;;;;;24.86;69.03;100658.16;5056114;28;20087;-83
2022/07/24 01:24:20;;;;;;;6.03;3.75;;;;;;;24.77;69.02;100644.81;5056580;28;20508;-84
2022/07/24 01:26:47;;;;;;;7.97;3.95;;;;;;;24.84;69.33;100660.28;5051870;28;20064;-84
2022/07/24 01:29:13;;;;;;;12.45;4.03;;;;;;;24.82;69.09;100670.69;5036065;28;20057;-84
2022/07/24 01:31:39;;;;;;;8.70;3.90;;;;;;;24.83;69.12;100655.84;5036360;28;20037;-82
2022/07/24 01:34:05;;;;;;;10.85;4.45;;;;;;;24.80;69.17;100656.25;5036109;28;20022;-82
2022/07/24 01:36:31;;;;;;;10.85;4.70;;;;;;;24.82;69.73;100656.94;5036370;28;20032;-83
2022/07/24 01:38:56;;;;;;;14.48;4.45;;;;;;;24.79;69.25;100659.22;5036786;28;20043;-84
2022/07/24 01:41:22;;;;;;;10.02;4.70;;;;;;;24.66;69.69;100643.59;5036096;28;20033;-85
2022/07/24 01:43:47;;;;;;;14.38;4.75;;;;;;;24.71;69.76;100649.28;5035699;28;20471;-84
2022/07/24 01:46:13;;;;;;;8.15;3.85;;;;;;;24.61;69.79;100645.31;5036155;28;20035;-84
2022/07/24 01:48:40;;;;;;;12.85;4.72;;;;;;;24.66;70.04;100643.59;5018226;28;20111;-83
2022/07/24 01:51:06;;;;;;;12.98;4.40;;;;;;;24.66;69.75;100642.75;5036101;28;20033;-83
2022/07/24 01:53:31;;;;;;;9.27;4.40;;;;;;;24.69;69.92;100640.41;5018128;28;20474;-82
2022/07/24 01:55:57;;;;;;;13.68;4.63;;;;;;;24.60;70.14;100636.22;5035955;28;20458;-83
2022/07/24 01:58:22;;;;;;;11.00;4.63;;;;;;;24.64;70.00;100634.72;5035752;28;20088;-83
2022/07/24 02:00:48;;;;;;;8.38;4.15;;;;;;;24.60;69.91;100625.22;5035895;28;20029;-82
2022/07/24 02:03:13;;;;;;;10.05;3.95;;;;;;;24.53;70.14;100632.63;5035651;28;20030;-83
2022/07/24 02:05:40;;;;;;;16.38;4.82;;;;;;;24.52;70.37;100633.72;5035893;28;20053;-84
2022/07/24 02:08:06;;;;;;;19.52;4.70;;;;;;;24.46;70.54;100615.31;5035489;28;20037;-84
2022/07/24 02:10:32;;;;;;;10.23;5.00;;;;;;;24.48;70.50;100629.69;5034999;28;20036;-84
2022/07/24 02:12:58;;;;;;;8.32;4.43;;;;;;;24.54;70.68;100631.56;5034960;28;20483;-82
2022/07/24 02:15:24;;;;;;;12.63;4.45;;;;;;;24.54;70.21;100631.56;5035468;28;20045;-83
2022/07/24 02:17:55;;;;;;;13.00;4.57;;;;;;;24.53;70.82;100635.38;5034953;28;20033;-83
2022/07/24 02:20:21;;;;;;;11.90;5.10;;;;;;;24.49;70.74;100631.41;5035523;28;20025;-83
2022/07/24 02:22:47;;;;;;;11.30;5.35;;;;;;;24.53;70.67;100624.38;5035500;28;20037;-83
2022/07/24 02:25:12;;;;;;;8.77;4.13;;;;;;;24.52;70.49;100622.72;5034906;28;20542;-82
2022/07/24 02:27:38;;;;;;;11.02;5.38;;;;;;;24.56;69.90;100639.59;5035361;28;20487;-82
2022/07/24 02:30:06;;;;;;;10.45;4.80;;;;;;;24.50;69.71;100622.06;5035029;28;20033;-83
2022/07/24 02:32:33;;;;;;;5.50;4.10;;;;;;;24.53;69.38;100618.88;5040416;28;20039;-83
2022/07/24 02:34:58;;;;;;;11.77;4.50;;;;;;;24.53;69.33;100616.13;5055170;28;20032;-83
2022/07/24 02:37:23;;;;;;;8.25;4.10;;;;;;;24.55;68.82;100624.19;5055151;28;20033;-84
2022/07/24 02:39:49;;;;;;;9.88;4.35;;;;;;;24.56;68.89;100625.84;5019605;28;20041;-83
2022/07/24 02:42:14;;;;;;;10.38;5.18;;;;;;;24.51;68.44;100620.16;5035091;28;20025;-83
2022/07/24 02:44:40;;;;;;;18.17;4.25;;;;;;;24.46;68.59;100629.06;5023281;28;20107;-84
2022/07/24 02:47:05;;;;;;;12.00;4.43;;;;;;;24.50;68.42;100627.56;5053469;28;20036;-84
2022/07/24 02:49:31;;;;;;;12.43;4.20;;;;;;;24.49;68.02;100625.03;5034643;28;20022;-84
2022/07/24 02:51:56;;;;;;;22.27;5.22;;;;;;;24.41;67.74;100606.84;5040540;28;20028;-82
2022/07/24 02:54:22;;;;;;;15.95;4.90;;;;;;;24.42;67.65;100627.81;5035015;28;20029;-82
2022/07/24 02:56:47;;;;;;;11.48;4.95;;;;;;;24.32;67.52;100610.91;5034434;28;20029;-82
2022/07/24 02:59:13;;;;;;;10.15;4.88;;;;;;;24.36;66.82;100623.16;5034644;28;20025;-84
2022/07/24 03:01:38;;;;;;;10.52;5.10;;;;;;;24.34;65.89;100615.13;5053306;28;20116;-84
2022/07/24 03:04:04;;;;;;;12.13;4.85;;;;;;;24.27;64.84;100613.44;5054767;28;20384;-84
2022/07/24 03:06:29;;;;;;;11.23;4.90;;;;;;;24.31;64.30;100612.78;5055030;28;20383;-83
2022/07/24 03:08:55;;;;;;;11.98;5.03;;;;;;;24.29;64.18;100616.81;5039954;28;20403;-82
2022/07/24 03:11:20;;;;;;;13.70;5.53;;;;;;;24.13;64.41;100598.88;5034265;28;20512;-83
2022/07/24 03:13:46;;;;;;;17.98;4.80;;;;;;;24.22;64.40;100619.56;5034627;28;20650;-83
2022/07/24 03:16:11;;;;;;;13.23;5.20;;;;;;;24.25;63.45;100621.03;5034865;28;20042;-84
2022/07/24 03:18:36;;;;;;;11.25;4.85;;;;;;;24.11;63.41;100619.38;5034605;28;20029;-84
2022/07/24 03:21:02;;;;;;;11.85;4.45;;;;;;;24.02;62.13;100612.38;5034495;28;20376;-85
2022/07/24 03:23:28;;;;;;;26.50;6.18;;;;;;;23.98;61.45;100611.97;5034601;28;20494;-84
2022/07/24 03:25:54;;;;;;;14.18;5.13;;;;;;;23.97;61.21;100621.28;5034316;28;20029;-84
2022/07/24 03:28:20;;;;;;;17.73;5.13;;;;;;;24.09;60.49;100613.22;5034246;28;20044;-83
2022/07/24 03:30:46;;;;;;;7.13;4.72;;;;;;;24.11;60.57;100616.63;5043516;28;20028;-84
2022/07/24 03:33:11;;;;;;;7.53;4.63;;;;;;;24.16;59.77;100609.44;5054079;28;20021;-83
2022/07/24 03:35:37;;;;;;;8.25;4.22;;;;;;;24.18;59.44;100610.09;5054100;28;20025;-82
2022/07/24 03:38:03;;;;;;;13.38;4.88;;;;;;;24.11;59.37;100606.50;5053757;28;20463;-83
2022/07/24 03:40:28;;;;;;;10.95;4.15;;;;;;;24.14;59.43;100605.22;5053864;28;20031;-83
2022/07/24 03:42:54;;;;;;;14.43;4.72;;;;;;;24.19;58.69;100597.16;5053937;28;20025;-82
2022/07/24 03:45:19;;;;;;;16.98;6.10;;;;;;;24.20;58.63;100599.72;5051692;28;20379;-78
2022/07/24 03:47:45;;;;;;;15.00;5.65;;;;;;;24.26;58.30;100614.50;5037668;28;20107;-78
2022/07/24 03:50:10;;;;;;;13.15;4.93;;;;;;;24.31;58.04;100611.97;5042280;28;20021;-77
2022/07/24 03:52:36;;;;;;;14.23;5.88;;;;;;;24.36;57.60;100614.91;5013753;28;20037;-78
2022/07/24 03:55:01;;;;;;;11.32;5.15;;;;;;;24.26;57.80;100609.00;5014905;28;20036;-78
2022/07/24 03:57:27;;;;;;;14.52;5.95;;;;;;;24.40;57.67;100609.84;5047441;28;20148;-76
2022/07/24 03:59:52;;;;;;;17.90;6.03;;;;;;;24.40;57.91;100602.44;5049102;28;20468;-75
2022/07/24 04:02:18;;;;;;;11.30;4.90;;;;;;;24.42;57.98;100607.72;5031074;28;20117;-77
2022/07/24 04:04:43;;;;;;;15.07;5.00;;;;;;;24.46;58.19;100614.47;5037719;28;20092;-75
2022/07/24 04:07:09;;;;;;;18.27;4.90;;;;;;;24.52;58.44;100619.97;5031145;28;20022;-77
2022/07/24 04:09:34;;;;;;;20.65;4.38;;;;;;;24.54;58.15;100611.47;5031132;28;20021;-79
2022/07/24 04:12:00;;;;;;;17.13;5.70;;;;;;;24.63;58.29;100621.19;5032071;28;20126;-78
2022/07/24 04:14:26;;;;;;;10.80;4.55;;;;;;;24.64;58.44;100611.88;5046423;28;20517;-77
2022/07/24 04:16:51;;;;;;;13.40;5.15;;;;;;;24.70;58.71;100613.75;5037979;28;20021;-80
2022/07/24 04:19:17;;;;;;;18.38;4.53;;;;;;;24.75;59.21;100620.31;5050655;28;20466;-77
2022/07/24 04:21:42;;;;;;;25.30;6.20;;;;;;;24.76;59.22;100613.75;5051028;28;20024;-79
2022/07/24 04:24:07;;;;;;;15.95;6.03;;;;;;;24.76;59.72;100607.41;5046117;28;20022;-81
2022/07/24 04:26:33;;;;;;;14.45;5.95;;;;;;;24.85;60.04;100615.22;5031279;28;20038;-81
2022/07/24 04:28:58;;;;;;;11.93;5.07;;;;;;;24.71;60.74;100597.03;5031695;28;20450;-80
2022/07/24 04:31:24;;;;;;;13.77;4.82;;;;;;;24.87;60.53;100624.09;5031655;28;20479;-80
2022/07/24 04:33:49;;;;;;;14.10;5.85;;;;;;;24.90;61.18;100623.66;5031113;28;20036;-80
2022/07/24 04:36:15;;;;;;;9.00;5.90;;;;;;;24.99;61.07;100609.63;5031698;28;20407;-78
2022/07/24 04:38:40;;;;;;;13.40;5.43;;;;;;;25.07;61.35;100612.16;5031412;28;20079;-81
2022/07/24 04:41:06;;;;;;;23.35;6.13;;;;;;;25.18;62.05;100614.19;5031349;28;20052;-80
2022/07/24 04:43:31;;;;;;;21.02;6.15;;;;;;;25.22;62.33;100615.47;5031086;28;20032;-78
2022/07/24 04:45:57;;;;;;;14.35;5.75;;;;;;;25.27;63.44;100605.47;5031048;28;20465;-77
2022/07/24 04:48:24;;;;;;;17.80;6.15;;;;;;;25.39;64.05;100608.34;5031053;28;20025;-75
2022/07/24 04:50:50;;;;;;;32.13;6.63;;;;;;;25.54;68.38;100617.19;5030763;28;20021;-79
2022/07/24 04:53:15;;;;;;;11.38;5.57;;;;;;;25.56;69.69;100612.31;5030949;28;20087;-77
2022/07/24 04:55:41;;;;;;;12.18;5.07;;;;;;;25.65;71.95;100623.91;5030481;28;20464;-76
2022/07/24 04:58:06;;;;;;;16.40;5.68;;;;;;;25.64;72.40;100614.78;5030354;28;20057;-76
2022/07/24 05:00:32;;;;;;;14.88;6.32;;;;;;;25.88;72.99;100627.75;5030545;28;20044;-77
2022/07/24 05:02:57;;;;;;;19.73;5.90;;;;;;;25.96;73.92;100624.69;5031932;28;20021;-75
2022/07/24 05:05:23;;;;;;;10.50;5.03;;;;;;;26.07;74.75;100625.03;5034471;28;20452;-76
2022/07/24 05:07:48;;;;;;;10.13;5.53;;;;;;;26.14;73.58;100634.94;5034509;28;20099;-75
2022/07/24 05:10:14;;;;;;;8.88;4.72;;;;;;;26.23;73.05;100632.78;5034152;28;20052;-74
2022/07/24 05:12:39;;;;;;;13.20;4.90;;;;;;;26.23;72.77;100622.59;5034711;28;20053;-81
2022/07/24 05:15:06;;;;;;;14.18;4.80;;;;;;;26.19;72.08;100626.00;5035350;28;20029;-79
2022/07/24 05:17:34;;;;;;;9.18;4.72;;;;;;;26.26;72.08;100629.56;5035070;28;20021;-80
2022/07/24 05:20:00;;;;;;;15.40;4.80;;;;;;;26.28;71.80;100630.16;5034521;28;20021;-80
2022/07/24 05:22:25;;;;;;;17.67;5.70;;;;;;;26.34;72.61;100629.25;5034309;28;20108;-78
2022/07/24 05:24:51;;;;;;;10.18;4.68;;;;;;;26.37;72.86;100621.38;5034083;28;20071;-77
2022/07/24 05:27:16;;;;;;;14.82;5.53;;;;;;;26.38;74.12;100627.75;5034090;28;20021;-78
2022/07/24 05:29:42;;;;;;;10.45;5.75;;;;;;;26.33;73.54;100619.28;5034095;28;20525;-77
2022/07/24 05:32:08;;;;;;;16.30;5.82;;;;;;;26.45;72.02;100629.34;5033624;28;20025;-77
2022/07/24 05:34:33;;;;;;;10.95;5.38;;;;;;;26.47;71.84;100621.72;5033990;28;20108;-76
2022/07/24 05:36:59;;;;;;;60.55;10.63;;;;;;;26.40;70.73;100617.31;5033600;28;20021;-78
2022/07/24 05:39:24;;;;;;;11.80;4.93;;;;;;;26.46;71.24;100625.53;5033273;28;20036;-78
2022/07/24 05:41:50;;;;;;;9.60;4.97;;;;;;;26.49;70.60;100619.56;5033230;28;20396;-77
2022/07/24 05:44:15;;;;;;;17.13;5.28;;;;;;;26.61;70.09;100625.16;5033305;28;20246;-77
2022/07/24 05:46:40;;;;;;;11.55;4.53;;;;;;;26.65;68.08;100623.63;5033233;28;20029;-77
2022/07/24 05:49:06;;;;;;;7.47;4.15;;;;;;;26.51;68.00;100619.34;5032936;28;20514;-77
2022/07/24 05:51:32;;;;;;;17.25;4.18;;;;;;;26.56;65.19;100627.75;5033808;28;20030;-78
2022/07/24 05:53:57;;;;;;;12.57;4.15;;;;;;;26.58;65.26;100622.84;5033104;28;20030;-78
2022/07/24 05:56:23;;;;;;;9.90;3.92;;;;;;;26.68;65.25;100623.16;5032825;28;20026;-78
2022/07/24 05:58:48;;;;;;;9.13;4.75;;;;;;;26.73;61.38;100627.97;5032772;28;20041;-78
2022/07/24 06:01:14;;;;;;;10.18;5.68;;;;;;;26.74;63.58;100619.47;5033673;28;20040;-79
2022/07/24 06:03:39;;;;;;;16.77;4.85;;;;;;;26.75;64.29;100623.09;5033437;28;20021;-77
2022/07/24 06:06:05;;;;;;;33.83;5.22;;;;;;;26.84;63.29;100630.88;5032981;28;20017;-78
2022/07/24 06:08:31;;;;;;;15.57;4.68;;;;;;;26.95;61.87;100627.31;5032954;28;20053;-78
2022/07/24 06:10:56;;;;;;;9.65;3.65;;;;;;;26.85;62.94;100629.78;5032708;28;20112;-78
2022/07/24 06:13:22;;;;;;;8.50;4.28;;;;;;;26.90;63.07;100620.81;5032860;28;20095;-77
2022/07/24 06:15:47;;;;;;;9.73;4.38;;;;;;;26.82;61.69;100616.44;5032608;28;20021;-76
2022/07/24 06:18:12;;;;;;;30.35;12.65;;;;;;;26.89;62.00;100608.91;5032858;28;20420;-77
2022/07/24 06:20:38;;;;;;;7.13;4.57;;;;;;;26.97;58.16;100611.34;5031770;28;20435;-79
2022/07/24 06:23:03;;;;;;;11.32;3.97;;;;;;;26.88;55.91;100615.50;5015640;28;20022;-78
2022/07/24 06:25:29;;;;;;;10.98;3.63;;;;;;;26.89;56.01;100605.31;5033012;28;20108;-79
2022/07/24 06:27:58;;;;;;;8.32;4.15;;;;;;;26.85;57.68;100606.84;5015977;28;20407;-86
2022/07/24 06:30:25;;;;;;;15.52;3.90;;;;;;;26.96;57.46;100608.84;5035027;28;20082;-85
2022/07/24 06:32:53;;;;;;;12.15;4.28;;;;;;;27.03;56.61;100624.22;5034245;28;20035;-85
2022/07/24 06:35:19;;;;;;;7.72;3.72;;;;;;;27.07;57.65;100610.81;5031325;28;20036;-79
2022/07/24 06:37:45;;;;;;;8.75;4.35;;;;;;;27.07;59.35;100621.84;5032282;28;20035;-79
2022/07/24 06:40:11;;;;;;;13.98;4.13;;;;;;;27.16;59.55;100614.09;5032928;28;20082;-80
2022/07/24 06:42:37;;;;;;;8.50;4.30;;;;;;;27.23;61.78;100620.38;5032140;28;20029;-79
2022/07/24 06:45:03;;;;;;;8.75;3.47;;;;;;;27.21;61.35;100617.00;5032059;28;20467;-80
2022/07/24 06:47:28;;;;;;;10.82;3.85;;;;;;;27.18;61.69;100589.84;5033148;28;20036;-79
2022/07/24 06:49:54;;;;;;;10.15;5.00;;;;;;;27.33;61.19;100609.59;5014766;28;20021;-79
2022/07/24 06:52:19;;;;;;;13.38;4.25;;;;;;;27.24;62.48;100600.81;5032617;28;20025;-80
2022/07/24 06:54:45;;;;;;;9.02;4.28;;;;;;;27.39;63.26;100604.00;5032567;28;20472;-78
2022/07/24 06:57:11;;;;;;;8.45;3.72;;;;;;;27.39;62.79;100603.16;5031985;28;20064;-76
2022/07/24 06:59:36;;;;;;;7.80;4.10;;;;;;;27.50;60.71;100599.59;5014044;28;20025;-76
2022/07/24 07:02:02;;;;;;;6.68;3.22;;;;;;;27.49;61.97;100587.69;5031545;28;20035;-75
2022/07/24 07:04:27;;;;;;;12.43;4.00;;;;;;;27.44;61.84;100589.50;5031703;28;20104;-75
2022/07/24 07:06:53;;;;;;;14.45;4.43;;;;;;;27.53;60.51;100596.34;5031962;28;20045;-78
2022/07/24 07:09:20;;;;;;;10.10;3.88;;;;;;;27.66;60.39;100598.94;5032385;28;20033;-76
2022/07/24 07:11:45;;;;;;;7.43;3.30;;;;;;;27.66;58.06;100593.41;5031403;28;20414;-76
2022/07/24 07:14:11;;;;;;;4.13;3.22;;;;;;;27.69;56.82;100597.59;5031791;28;20036;-75
2022/07/24 07:16:36;;;;;;;9.93;3.45;;;;;;;27.66;57.61;100593.41;5030845;28;20025;-75
2022/07/24 07:19:02;;;;;;;10.57;3.50;;;;;;;27.67;56.11;100600.63;5031672;28;20100;-76
2022/07/24 07:21:27;;;;;;;11.57;3.65;;;;;;;27.62;58.40;100586.66;5031506;28;20027;-76
2022/07/24 07:23:54;;;;;;;6.35;3.67;;;;;;;27.73;57.74;100587.75;5031606;28;20053;-75
2022/07/24 07:26:19;;;;;;;4.32;3.17;;;;;;;27.61;56.80;100576.69;5031127;28;20580;-76
2022/07/24 07:28:45;;;;;;;10.90;4.28;;;;;;;27.60;56.38;100571.38;5031405;28;20025;-76
2022/07/24 07:31:10;;;;;;;6.35;4.00;;;;;;;27.79;57.14;100586.81;5031624;28;20396;-75
2022/07/24 07:33:36;;;;;;;14.48;4.70;;;;;;;27.92;57.40;100587.41;5031635;28;20033;-76
2022/07/24 07:36:01;;;;;;;13.52;4.72;;;;;;;27.95;56.67;100591.66;5031313;28;20025;-76
2022/07/24 07:38:27;;;;;;;9.02;3.72;;;;;;;28.00;55.74;100592.59;5031454;28;20037;-75
2022/07/24 07:40:52;;;;;;;12.43;3.65;;;;;;;28.14;55.71;100584.09;5031571;28;20029;-76
2022/07/24 07:43:18;;;;;;;9.60;4.20;;;;;;;28.19;55.43;100585.06;5031363;28;20045;-75
2022/07/24 07:45:43;;;;;;;9.38;4.15;;;;;;;28.26;55.63;100590.44;5031461;28;20040;-76
2022/07/24 07:48:09;;;;;;;12.65;3.70;;;;;;;28.38;54.75;100574.69;5031300;28;20059;-75
2022/07/24 07:50:34;;;;;;;20.08;4.88;;;;;;;28.45;54.83;100583.72;5031415;28;20028;-75
2022/07/24 07:53:00;;;;;;;23.23;4.38;;;;;;;28.46;54.38;100571.56;5031531;28;20468;-75
2022/07/24 07:55:26;;;;;;;18.20;5.07;;;;;;;28.55;55.24;100575.63;5031366;28;20049;-75
2022/07/24 07:57:51;;;;;;;9.20;3.90;;;;;;;28.56;54.63;100578.16;5031485;28;20053;-74
2022/07/24 08:00:18;;;;;;;6.53;4.05;;;;;;;28.61;54.74;100577.44;5031230;28;20097;-77
2022/07/24 08:02:43;;;;;;;10.95;4.03;;;;;;;28.58;54.26;100575.16;5031154;28;20029;-75
2022/07/24 08:05:09;;;;;;;10.43;3.92;;;;;;;28.58;56.00;100572.38;5031013;28;20033;-77
2022/07/24 08:07:35;;;;;;;10.02;4.20;;;;;;;28.56;54.48;100561.53;5030927;28;20076;-74
2022/07/24 08:10:00;;;;;;;8.02;4.18;;;;;;;28.68;54.65;100564.34;5030782;28;20785;-76
2022/07/24 08:12:26;;;;;;;7.35;3.92;;;;;;;28.76;51.86;100563.09;5030834;28;20030;-76
2022/07/24 08:14:52;;;;;;;10.77;5.20;;;;;;;28.87;52.38;100568.59;5030792;28;20029;-75
2022/07/24 08:17:17;;;;;;;15.65;4.80;;;;;;;28.90;50.70;100551.50;5030603;28;20033;-75
2022/07/24 08:19:43;;;;;;;14.75;3.47;;;;;;;29.01;50.92;100563.63;5030901;28;20554;-76
2022/07/24 08:22:08;;;;;;;10.40;3.90;;;;;;;29.02;49.96;100560.59;5030686;28;20406;-76
2022/07/24 08:24:34;;;;;;;8.02;3.28;;;;;;;29.16;48.47;100564.75;5030742;28;20037;-75
2022/07/24 08:26:59;;;;;;;10.98;3.17;;;;;;;29.16;46.21;100556.44;5030588;28;20017;-76
2022/07/24 08:29:26;;;;;;;14.13;3.30;;;;;;;29.20;44.25;100554.03;5030740;28;20100;-75
2022/07/24 08:31:52;;;;;;;11.07;2.97;;;;;;;29.26;43.73;100560.53;5030678;28;20029;-75
2022/07/24 08:34:17;;;;;;;6.90;3.20;;;;;;;29.28;44.70;100553.66;5030498;28;20025;-75
2022/07/24 08:36:45;;;;;;;6.60;3.83;;;;;;;29.36;44.46;100544.06;5030365;28;20127;-76
2022/07/24 08:39:15;;;;;;;11.77;3.92;;;;;;;29.51;44.94;100569.31;5034221;28;20040;-75
2022/07/24 08:41:41;;;;;;;6.20;3.63;;;;;;;29.56;45.53;100567.47;5034449;28;20060;-75
2022/07/24 08:44:07;;;;;;;5.50;2.97;;;;;;;29.52;44.29;100565.44;5034652;28;20056;-75
2022/07/24 08:46:34;;;;;;;5.97;3.47;;;;;;;29.63;44.81;100570.06;5034437;28;20562;-75
2022/07/24 08:49:00;;;;;;;9.20;3.72;;;;;;;29.70;45.21;100571.56;5034343;28;20464;-75
2022/07/24 08:51:33;;;;;;;6.22;3.15;;;;;;;29.72;45.31;100565.78;5034407;28;20794;-75
2022/07/24 08:53:59;;;;;;;4.78;3.35;;;;;;;29.77;45.40;100565.88;5033977;28;20030;-75
2022/07/24 08:56:25;;;;;;;7.82;3.35;;;;;;;29.97;46.16;100563.44;5034270;28;20017;-76
2022/07/24 08:58:51;;;;;;;11.65;3.67;;;;;;;30.10;44.64;100568.66;5034021;28;20053;-74
2022/07/24 09:01:16;;;;;;;24.35;6.13;;;;;;;30.21;46.03;100564.91;5034154;28;20083;-75
2022/07/24 09:03:44;;;;;;;4.82;2.80;;;;;;;30.20;45.40;100568.81;5034407;28;20026;-75
2022/07/24 09:06:10;;;;;;;6.60;3.47;;;;;;;30.17;43.76;100555.44;5034100;28;20029;-76
2022/07/24 09:08:39;;;;;;;7.75;3.90;;;;;;;30.24;45.93;100563.59;5034021;28;20044;-76
2022/07/24 09:11:05;;;;;;;11.70;3.25;;;;;;;30.37;45.63;100560.44;5034139;28;20048;-76
2022/07/24 09:16:23;;;;;;;10.48;3.67;;;;;;;30.12;47.56;100555.34;5034214;28;20106;-76
2022/07/24 09:18:51;;;;;;;16.52;3.72;;;;;;;30.07;48.91;100563.63;5033834;28;20029;-76
2022/07/24 09:21:17;;;;;;;12.90;5.47;;;;;;;30.17;49.94;100566.56;5033997;28;20041;-77
2022/07/24 09:23:44;;;;;;;16.90;3.58;;;;;;;30.26;50.44;100568.88;5033881;28;20032;-76
2022/07/24 09:26:10;;;;;;;17.13;5.82;;;;;;;30.23;51.18;100561.91;5033978;28;20030;-79
2022/07/24 09:28:53;;;;;;;11.40;3.60;;;;;;;30.19;51.12;100556.03;5034245;28;20032;-78
2022/07/24 09:31:22;;;;;;;8.65;4.40;;;;;;;30.33;54.31;100558.44;5034195;28;20383;-78
2022/07/24 09:33:48;;;;;;;5.95;3.15;;;;;;;30.40;53.03;100548.00;5033594;28;20021;-77
2022/07/24 09:36:18;;;;;;;13.07;3.50;;;;;;;30.31;50.15;100557.84;5033897;28;20024;-78
2022/07/24 09:38:49;;;;;;;8.02;3.35;;;;;;;30.32;52.92;100552.06;5033974;28;20435;-77
2022/07/24 09:41:21;;;;;;;6.25;3.63;;;;;;;30.41;51.78;100552.47;5033902;28;20071;-78
2022/07/24 09:43:57;;;;;;;5.90;3.40;;;;;;;30.48;52.52;100553.13;5034040;28;20033;-79
2022/07/24 09:46:25;;;;;;;8.93;4.10;;;;;;;30.53;52.44;100562.38;5033705;28;20029;-77
2022/07/24 09:48:53;;;;;;;5.07;3.20;;;;;;;30.45;52.66;100554.50;5033403;28;20021;-79
2022/07/24 09:51:19;;;;;;;8.75;3.05;;;;;;;30.33;54.58;100556.50;5033841;28;20021;-79
2022/07/24 09:53:46;;;;;;;6.18;3.85;;;;;;;30.29;55.24;100572.00;5033631;28;20028;-77
2022/07/24 09:56:17;;;;;;;12.30;3.42;;;;;;;30.32;55.25;100562.31;5033810;28;20462;-78
2022/07/24 09:58:45;;;;;;;16.55;4.47;;;;;;;30.16;58.09;100569.56;5012720;28;20037;-77
2022/07/24 10:01:12;;;;;;;8.55;3.97;;;;;;;30.22;58.40;100563.84;5014042;28;20046;-78
2022/07/24 10:03:40;;;;;;;8.05;3.88;;;;;;;30.20;59.43;100552.16;5014059;28;20558;-79
2022/07/24 10:06:10;;;;;;;6.88;3.38;;;;;;;30.32;59.99;100562.31;5014219;28;20026;-79
2022/07/24 10:08:38;;;;;;;14.27;4.32;;;;;;;30.35;60.51;100564.56;5014324;28;20038;-79
2022/07/24 10:11:04;;;;;;;11.35;4.55;;;;;;;30.20;60.90;100545.78;5014068;28;20026;-78
2022/07/24 10:13:30;;;;;;;5.72;3.55;;;;;;;30.31;60.58;100557.84;5013792;28;20083;-79
2022/07/24 10:16:14;;;;;;;24.55;4.13;;;;;;;30.32;60.58;100556.75;5013857;28;20596;-78
2022/07/24 10:18:51;;;;;;;12.00;4.53;;;;;;;30.24;60.79;100558.88;5012461;28;20471;-78
2022/07/24 10:21:21;;;;;;;14.40;4.82;;;;;;;30.05;61.25;100560.25;5013641;28;20044;-78
2022/07/24 10:23:46;;;;;;;6.93;4.03;;;;;;;30.13;60.75;100562.59;5013304;28;20029;-78
2022/07/24 10:26:23;;;;;;;7.32;4.13;;;;;;;30.12;60.68;100558.13;5012846;28;20121;-78
2022/07/24 10:28:55;;;;;;;16.35;4.60;;;;;;;29.90;59.98;100568.34;5013159;28;20029;-78
2022/07/24 10:31:20;;;;;;;14.05;3.92;;;;;;;30.01;60.76;100563.78;5013100;28;20026;-78
2022/07/24 10:33:53;;;;;;;13.23;4.60;;;;;;;30.07;60.87;100552.50;5013053;28;20029;-79
2022/07/24 10:36:29;;;;;;;14.48;4.63;;;;;;;30.04;61.40;100554.94;5012886;28;20018;-79
2022/07/24 10:39:12;;;;;;;14.75;3.92;;;;;;;30.09;60.63;100558.63;5012711;28;20033;-78
2022/07/24 10:41:37;;;;;;;;;;;;;;;29.93;61.50;100565.06;5013060;28;20140;-78
2022/07/24 10:44:19;;;;;;;13.40;6.00;;;;;;;29.70;61.23;100563.25;5011500;28;20010;-78
2022/07/24 10:47:00;;;;;;;;;;;;;;;29.56;62.97;100561.06;5011766;28;20300;-78
2022/07/24 10:49:43;;;;;;;20.42;5.05;;;;;;;29.57;63.88;100568.31;5011246;28;19909;-79
2022/07/24 10:52:11;;;;;;;8.65;4.72;;;;;;;29.57;62.66;100562.75;5012368;28;20081;-77
2022/07/24 10:54:37;;;;;;;6.63;3.88;;;;;;;29.41;63.08;100549.72;5011232;28;20412;-78
2022/07/24 10:57:03;;;;;;;16.48;5.05;;;;;;;29.59;61.90;100557.81;5015095;28;20049;-77
2022/07/24 10:59:37;;;;;;;14.02;4.63;;;;;;;29.58;61.81;100553.34;5031903;28;20108;-78
2022/07/24 11:02:29;;;;;;;8.45;4.22;;;;;;;29.78;61.83;100562.00;5014220;28;20021;-78
2022/07/24 11:05:28;;;;;;;12.23;4.18;;;;;;;29.79;62.51;100555.34;5032261;28;20013;-78
2022/07/24 11:08:11;;;;;;;14.05;4.47;;;;;;;29.81;62.92;100560.66;5032099;28;20458;-78
2022/07/24 11:10:52;;;;;;;7.78;4.80;;;;;;;29.94;64.02;100547.31;5031955;28;20025;-79
2022/07/24 11:13:32;;;;;;;17.73;4.80;;;;;;;29.94;63.77;100554.78;5032105;28;20105;-78
2022/07/24 11:16:10;;;;;;;6.38;3.90;;;;;;;29.93;63.56;100551.19;5031836;28;20032;-78
2022/07/24 11:18:46;;;;;;;13.38;4.57;;;;;;;29.87;63.39;100540.28;5013923;28;20033;-78
2022/07/24 11:21:12;;;;;;;7.28;3.92;;;;;;;29.83;64.09;100539.09;5031864;28;20025;-78